sensor_id;sensor_type;location;lat;lon;timestamp;temperature;humidity
19880;DHT22;10102;50.828;4.416;2023-11-19T00:00:36;14.10;99.90
19880;DHT22;10102;50.828;4.416;2023-11-19T00:03:01;14.10;99.90
19880;DHT22;10102;50.828;4.416;2023-11-19T00:05:27;14.40;99.90
19880;DHT22;10102;50.828;4.416;2023-11-19T00:07:54;13.80;99.90
19880;DHT22;10102;50.828;4.416;2023-11-19T00:10:20;14.20;99.90
19880;DHT22;10102;50.828;4.416;2023-11-19T00:12:48;14.20;99.90
19880;DHT22;10102;50.828;4.416;2023-11-19T00:15:15;14.10;99.90
19880;DHT22;10102;50.828;4.416;2023-11-19T00:17:42;14.10;99.90
19880;DHT22;10102;50.828;4.416;2023-11-19T00:20:12;14.00;99.90
19880;DHT22;10102;50.828;4.416;2023-11-19T00:22:38;14.10;99.90
19880;DHT22;10102;50.828;4.416;2023-11-19T00:25:04;14.10;99.90
19880;DHT22;10102;50.828;4.416;2023-11-19T00:27:31;14.00;99.90
19880;DHT22;10102;50.828;4.416;2023-11-19T00:29:56;14.10;99.90
19880;DHT22;10102;50.828;4.416;2023-11-19T00:32:23;14.10;99.90
19880;DHT22;10102;50.828;4.416;2023-11-19T00:34:48;14.10;99.90
19880;DHT22;10102;50.828;4.416;2023-11-19T00:37:14;14.10;99.90
19880;DHT22;10102;50.828;4.416;2023-11-19T00:39:43;13.90;99.90
19880;DHT22;10102;50.828;4.416;2023-11-19T00:42:10;14.40;99.90
19880;DHT22;10102;50.828;4.416;2023-11-19T00:44:36;14.20;99.90
19880;DHT22;10102;50.828;4.416;2023-11-19T00:47:02;14.10;99.90
19880;DHT22;10102;50.828;4.416;2023-11-19T00:49:28;14.00;99.90
19880;DHT22;10102;50.828;4.416;2023-11-19T00:51:53;14.00;99.90
19880;DHT22;10102;50.828;4.416;2023-11-19T00:54:19;14.00;99.90
19880;DHT22;10102;50.828;4.416;2023-11-19T00:56:45;14.00;99.90
19880;DHT22;10102;50.828;4.416;2023-11-19T00:59:10;14.10;99.90
19880;DHT22;10102;50.828;4.416;2023-11-19T01:01:36;14.00;99.90
19880;DHT22;10102;50.828;4.416;2023-11-19T01:04:02;14.10;99.90
19880;DHT22;10102;50.828;4.416;2023-11-19T01:06:31;14.20;99.90
19880;DHT22;10102;50.828;4.416;2023-11-19T01:08:58;14.10;99.90
19880;DHT22;10102;50.828;4.416;2023-11-19T01:11:27;14.10;99.90
19880;DHT22;10102;50.828;4.416;2023-11-19T01:13:54;14.00;99.90
19880;DHT22;10102;50.828;4.416;2023-11-19T01:16:20;14.00;99.90
19880;DHT22;10102;50.828;4.416;2023-11-19T01:18:49;14.10;99.90
19880;DHT22;10102;50.828;4.416;2023-11-19T01:21:15;14.50;99.90
19880;DHT22;10102;50.828;4.416;2023-11-19T01:23:42;14.30;99.90
19880;DHT22;10102;50.828;4.416;2023-11-19T01:26:13;14.20;99.90
19880;DHT22;10102;50.828;4.416;2023-11-19T01:28:39;14.20;99.90
19880;DHT22;10102;50.828;4.416;2023-11-19T01:31:15;14.20;99.90
19880;DHT22;10102;50.828;4.416;2023-11-19T01:33:40;14.10;99.90
19880;DHT22;10102;50.828;4.416;2023-11-19T01:36:07;13.90;99.90
19880;DHT22;10102;50.828;4.416;2023-11-19T01:38:34;14.10;99.90
19880;DHT22;10102;50.828;4.416;2023-11-19T01:41:00;14.10;99.90
19880;DHT22;10102;50.828;4.416;2023-11-19T01:43:35;14.10;99.90
19880;DHT22;10102;50.828;4.416;2023-11-19T01:46:03;14.00;99.90
19880;DHT22;10102;50.828;4.416;2023-11-19T01:48:31;13.90;99.90
19880;DHT22;10102;50.828;4.416;2023-11-19T01:50:58;13.80;99.90
19880;DHT22;10102;50.828;4.416;2023-11-19T01:53:25;13.90;99.90
19880;DHT22;10102;50.828;4.416;2023-11-19T01:55:50;13.90;99.90
19880;DHT22;10102;50.828;4.416;2023-11-19T01:58:18;13.80;99.90
19880;DHT22;10102;50.828;4.416;2023-11-19T02:00:45;13.90;99.90
19880;DHT22;10102;50.828;4.416;2023-11-19T02:03:11;13.80;99.90
19880;DHT22;10102;50.828;4.416;2023-11-19T02:05:37;13.90;99.90
19880;DHT22;10102;50.828;4.416;2023-11-19T02:08:04;13.80;99.90
19880;DHT22;10102;50.828;4.416;2023-11-19T02:10:30;13.90;99.90
19880;DHT22;10102;50.828;4.416;2023-11-19T02:12:58;14.10;99.90
19880;DHT22;10102;50.828;4.416;2023-11-19T02:15:24;13.90;99.90
19880;DHT22;10102;50.828;4.416;2023-11-19T02:17:50;13.90;99.90
19880;DHT22;10102;50.828;4.416;2023-11-19T02:20:17;13.70;99.90
19880;DHT22;10102;50.828;4.416;2023-11-19T02:22:48;13.80;99.90
19880;DHT22;10102;50.828;4.416;2023-11-19T02:25:29;13.80;99.90
19880;DHT22;10102;50.828;4.416;2023-11-19T02:28:03;13.70;99.90
19880;DHT22;10102;50.828;4.416;2023-11-19T02:30:29;13.80;99.90
19880;DHT22;10102;50.828;4.416;2023-11-19T02:32:59;13.70;99.90
19880;DHT22;10102;50.828;4.416;2023-11-19T02:35:27;13.60;99.90
19880;DHT22;10102;50.828;4.416;2023-11-19T02:37:56;13.70;99.90
19880;DHT22;10102;50.828;4.416;2023-11-19T02:40:22;13.50;99.90
19880;DHT22;10102;50.828;4.416;2023-11-19T02:42:50;13.50;99.90
19880;DHT22;10102;50.828;4.416;2023-11-19T02:45:16;13.60;99.90
19880;DHT22;10102;50.828;4.416;2023-11-19T02:47:42;13.60;99.90
19880;DHT22;10102;50.828;4.416;2023-11-19T02:50:11;13.70;99.90
19880;DHT22;10102;50.828;4.416;2023-11-19T02:52:49;13.80;99.90
19880;DHT22;10102;50.828;4.416;2023-11-19T02:55:16;13.70;99.90
19880;DHT22;10102;50.828;4.416;2023-11-19T02:57:43;13.60;99.90
19880;DHT22;10102;50.828;4.416;2023-11-19T03:00:18;13.70;99.90
19880;DHT22;10102;50.828;4.416;2023-11-19T03:02:47;13.60;99.90
19880;DHT22;10102;50.828;4.416;2023-11-19T03:05:14;13.70;99.90
19880;DHT22;10102;50.828;4.416;2023-11-19T03:07:41;13.70;99.90
19880;DHT22;10102;50.828;4.416;2023-11-19T03:10:11;13.60;99.90
19880;DHT22;10102;50.828;4.416;2023-11-19T03:12:43;13.60;99.90
19880;DHT22;10102;50.828;4.416;2023-11-19T03:15:11;13.40;99.90
19880;DHT22;10102;50.828;4.416;2023-11-19T03:17:40;13.60;99.90
19880;DHT22;10102;50.828;4.416;2023-11-19T03:22:36;13.60;99.90
19880;DHT22;10102;50.828;4.416;2023-11-19T03:25:02;13.60;99.90
19880;DHT22;10102;50.828;4.416;2023-11-19T03:27:27;13.50;99.90
19880;DHT22;10102;50.828;4.416;2023-11-19T03:29:53;14.00;99.90
19880;DHT22;10102;50.828;4.416;2023-11-19T03:32:20;13.50;99.90
19880;DHT22;10102;50.828;4.416;2023-11-19T03:34:46;13.10;99.90
19880;DHT22;10102;50.828;4.416;2023-11-19T03:37:11;13.40;99.90
19880;DHT22;10102;50.828;4.416;2023-11-19T03:39:39;13.30;99.90
19880;DHT22;10102;50.828;4.416;2023-11-19T03:42:04;13.30;99.90
19880;DHT22;10102;50.828;4.416;2023-11-19T03:44:30;13.30;99.90
19880;DHT22;10102;50.828;4.416;2023-11-19T03:46:56;13.20;99.90
19880;DHT22;10102;50.828;4.416;2023-11-19T03:49:21;13.10;99.90
19880;DHT22;10102;50.828;4.416;2023-11-19T03:51:49;13.00;99.90
19880;DHT22;10102;50.828;4.416;2023-11-19T03:54:15;13.00;99.90
19880;DHT22;10102;50.828;4.416;2023-11-19T03:56:40;13.00;99.90
19880;DHT22;10102;50.828;4.416;2023-11-19T03:59:06;13.10;99.90
19880;DHT22;10102;50.828;4.416;2023-11-19T04:01:31;13.00;99.90
19880;DHT22;10102;50.828;4.416;2023-11-19T04:03:57;13.40;99.90
19880;DHT22;10102;50.828;4.416;2023-11-19T04:06:23;13.10;99.90
19880;DHT22;10102;50.828;4.416;2023-11-19T04:08:48;13.20;99.90
19880;DHT22;10102;50.828;4.416;2023-11-19T04:11:17;13.20;99.90
19880;DHT22;10102;50.828;4.416;2023-11-19T04:13:42;13.20;99.90
19880;DHT22;10102;50.828;4.416;2023-11-19T04:18:34;13.10;99.90
19880;DHT22;10102;50.828;4.416;2023-11-19T04:21:00;13.30;99.90
19880;DHT22;10102;50.828;4.416;2023-11-19T04:23:25;13.10;99.90
19880;DHT22;10102;50.828;4.416;2023-11-19T04:25:51;13.30;99.90
19880;DHT22;10102;50.828;4.416;2023-11-19T04:28:17;13.20;99.90
19880;DHT22;10102;50.828;4.416;2023-11-19T04:30:43;13.00;99.90
19880;DHT22;10102;50.828;4.416;2023-11-19T04:33:09;13.00;99.90
19880;DHT22;10102;50.828;4.416;2023-11-19T04:35:35;13.10;99.90
19880;DHT22;10102;50.828;4.416;2023-11-19T04:38:02;13.00;99.90
19880;DHT22;10102;50.828;4.416;2023-11-19T04:42:54;12.90;99.90
19880;DHT22;10102;50.828;4.416;2023-11-19T04:45:19;12.90;99.90
19880;DHT22;10102;50.828;4.416;2023-11-19T04:47:45;13.10;99.90
19880;DHT22;10102;50.828;4.416;2023-11-19T04:50:11;13.20;99.90
19880;DHT22;10102;50.828;4.416;2023-11-19T04:52:40;13.10;99.90
19880;DHT22;10102;50.828;4.416;2023-11-19T04:55:06;13.10;99.90
19880;DHT22;10102;50.828;4.416;2023-11-19T04:57:32;13.30;99.90
19880;DHT22;10102;50.828;4.416;2023-11-19T04:59:58;13.30;99.90
19880;DHT22;10102;50.828;4.416;2023-11-19T05:02:27;13.20;99.90
19880;DHT22;10102;50.828;4.416;2023-11-19T05:04:53;13.20;99.90
19880;DHT22;10102;50.828;4.416;2023-11-19T05:07:19;13.40;99.90
19880;DHT22;10102;50.828;4.416;2023-11-19T05:09:47;13.40;99.90
19880;DHT22;10102;50.828;4.416;2023-11-19T05:12:12;13.20;99.90
19880;DHT22;10102;50.828;4.416;2023-11-19T05:14:38;13.20;99.90
19880;DHT22;10102;50.828;4.416;2023-11-19T05:17:04;13.20;99.90
19880;DHT22;10102;50.828;4.416;2023-11-19T05:19:30;13.10;99.90
19880;DHT22;10102;50.828;4.416;2023-11-19T05:21:56;13.10;99.90
19880;DHT22;10102;50.828;4.416;2023-11-19T05:24:22;13.00;99.90
19880;DHT22;10102;50.828;4.416;2023-11-19T05:26:48;13.00;99.90
19880;DHT22;10102;50.828;4.416;2023-11-19T05:29:15;12.90;99.90
19880;DHT22;10102;50.828;4.416;2023-11-19T05:31:41;12.90;99.90
19880;DHT22;10102;50.828;4.416;2023-11-19T05:34:07;12.90;99.90
19880;DHT22;10102;50.828;4.416;2023-11-19T05:36:32;12.80;99.90
19880;DHT22;10102;50.828;4.416;2023-11-19T05:38:58;12.90;99.90
19880;DHT22;10102;50.828;4.416;2023-11-19T05:41:24;13.00;99.90
19880;DHT22;10102;50.828;4.416;2023-11-19T05:43:49;13.00;99.90
19880;DHT22;10102;50.828;4.416;2023-11-19T05:46:15;13.00;99.90
19880;DHT22;10102;50.828;4.416;2023-11-19T05:48:42;13.10;99.90
19880;DHT22;10102;50.828;4.416;2023-11-19T05:51:08;12.90;99.90
19880;DHT22;10102;50.828;4.416;2023-11-19T05:53:33;13.00;99.90
19880;DHT22;10102;50.828;4.416;2023-11-19T05:55:59;13.00;99.90
19880;DHT22;10102;50.828;4.416;2023-11-19T05:58:29;13.00;99.90
19880;DHT22;10102;50.828;4.416;2023-11-19T06:00:55;12.90;99.90
19880;DHT22;10102;50.828;4.416;2023-11-19T06:03:21;12.90;99.90
19880;DHT22;10102;50.828;4.416;2023-11-19T06:05:48;13.10;99.90
19880;DHT22;10102;50.828;4.416;2023-11-19T06:08:14;12.60;99.90
19880;DHT22;10102;50.828;4.416;2023-11-19T06:10:43;12.70;99.90
19880;DHT22;10102;50.828;4.416;2023-11-19T06:13:12;12.80;99.90
19880;DHT22;10102;50.828;4.416;2023-11-19T06:15:38;12.70;99.90
19880;DHT22;10102;50.828;4.416;2023-11-19T06:18:04;12.30;99.90
19880;DHT22;10102;50.828;4.416;2023-11-19T06:20:30;12.60;99.90
19880;DHT22;10102;50.828;4.416;2023-11-19T06:22:56;12.60;99.90
19880;DHT22;10102;50.828;4.416;2023-11-19T06:25:22;12.50;99.90
19880;DHT22;10102;50.828;4.416;2023-11-19T06:27:52;12.50;99.90
19880;DHT22;10102;50.828;4.416;2023-11-19T06:30:18;12.50;99.90
19880;DHT22;10102;50.828;4.416;2023-11-19T06:32:44;12.50;99.90
19880;DHT22;10102;50.828;4.416;2023-11-19T06:35:10;12.50;99.90
19880;DHT22;10102;50.828;4.416;2023-11-19T06:37:38;12.50;99.90
19880;DHT22;10102;50.828;4.416;2023-11-19T06:40:04;12.60;99.90
19880;DHT22;10102;50.828;4.416;2023-11-19T06:42:30;12.50;99.90
19880;DHT22;10102;50.828;4.416;2023-11-19T06:44:57;12.50;99.90
19880;DHT22;10102;50.828;4.416;2023-11-19T06:47:26;12.50;99.90
19880;DHT22;10102;50.828;4.416;2023-11-19T06:49:53;12.60;99.90
19880;DHT22;10102;50.828;4.416;2023-11-19T06:52:19;12.60;99.90
19880;DHT22;10102;50.828;4.416;2023-11-19T06:54:45;12.60;99.90
19880;DHT22;10102;50.828;4.416;2023-11-19T06:57:11;12.50;99.90
19880;DHT22;10102;50.828;4.416;2023-11-19T07:02:03;12.70;99.90
19880;DHT22;10102;50.828;4.416;2023-11-19T07:04:30;12.40;99.90
19880;DHT22;10102;50.828;4.416;2023-11-19T07:06:56;12.40;99.90
19880;DHT22;10102;50.828;4.416;2023-11-19T07:09:22;12.30;99.90
19880;DHT22;10102;50.828;4.416;2023-11-19T07:11:49;12.40;99.90
19880;DHT22;10102;50.828;4.416;2023-11-19T07:14:17;12.50;99.90
19880;DHT22;10102;50.828;4.416;2023-11-19T07:16:44;12.40;99.90
19880;DHT22;10102;50.828;4.416;2023-11-19T07:19:10;12.50;99.90
19880;DHT22;10102;50.828;4.416;2023-11-19T07:21:35;12.40;99.90
19880;DHT22;10102;50.828;4.416;2023-11-19T07:24:05;12.40;99.90
19880;DHT22;10102;50.828;4.416;2023-11-19T07:26:31;12.50;99.90
19880;DHT22;10102;50.828;4.416;2023-11-19T07:28:57;12.50;99.90
19880;DHT22;10102;50.828;4.416;2023-11-19T07:31:24;12.50;99.90
19880;DHT22;10102;50.828;4.416;2023-11-19T07:33:49;12.50;99.90
19880;DHT22;10102;50.828;4.416;2023-11-19T07:36:15;12.60;99.90
19880;DHT22;10102;50.828;4.416;2023-11-19T07:38:42;12.50;99.90
19880;DHT22;10102;50.828;4.416;2023-11-19T07:41:08;12.50;99.90
19880;DHT22;10102;50.828;4.416;2023-11-19T07:43:39;12.50;99.90
19880;DHT22;10102;50.828;4.416;2023-11-19T07:46:11;12.60;99.90
19880;DHT22;10102;50.828;4.416;2023-11-19T07:48:39;12.70;99.90
19880;DHT22;10102;50.828;4.416;2023-11-19T07:51:05;12.60;99.90
19880;DHT22;10102;50.828;4.416;2023-11-19T07:53:31;12.50;99.90
19880;DHT22;10102;50.828;4.416;2023-11-19T07:56:00;12.50;99.90
19880;DHT22;10102;50.828;4.416;2023-11-19T07:58:26;12.60;99.90
19880;DHT22;10102;50.828;4.416;2023-11-19T08:00:52;12.70;99.90
19880;DHT22;10102;50.828;4.416;2023-11-19T08:03:18;12.70;99.90
19880;DHT22;10102;50.828;4.416;2023-11-19T08:05:50;12.90;99.90
19880;DHT22;10102;50.828;4.416;2023-11-19T08:08:17;12.70;99.90
19880;DHT22;10102;50.828;4.416;2023-11-19T08:10:42;12.80;99.90
19880;DHT22;10102;50.828;4.416;2023-11-19T08:13:11;12.90;99.90
19880;DHT22;10102;50.828;4.416;2023-11-19T08:15:36;12.70;99.90
19880;DHT22;10102;50.828;4.416;2023-11-19T08:18:03;12.70;99.90
19880;DHT22;10102;50.828;4.416;2023-11-19T08:20:29;12.70;99.90
19880;DHT22;10102;50.828;4.416;2023-11-19T08:22:54;12.90;99.90
19880;DHT22;10102;50.828;4.416;2023-11-19T08:25:20;12.80;99.90
19880;DHT22;10102;50.828;4.416;2023-11-19T08:27:46;13.00;99.90
19880;DHT22;10102;50.828;4.416;2023-11-19T08:30:12;13.00;99.90
19880;DHT22;10102;50.828;4.416;2023-11-19T08:32:38;13.00;99.90
19880;DHT22;10102;50.828;4.416;2023-11-19T08:35:04;12.80;99.90
19880;DHT22;10102;50.828;4.416;2023-11-19T08:37:29;13.30;99.90
19880;DHT22;10102;50.828;4.416;2023-11-19T08:39:55;13.40;99.90
19880;DHT22;10102;50.828;4.416;2023-11-19T08:42:21;13.30;99.90
19880;DHT22;10102;50.828;4.416;2023-11-19T08:44:50;13.20;99.90
19880;DHT22;10102;50.828;4.416;2023-11-19T08:47:19;13.10;99.90
19880;DHT22;10102;50.828;4.416;2023-11-19T08:49:45;13.00;99.90
19880;DHT22;10102;50.828;4.416;2023-11-19T08:52:12;13.00;99.90
19880;DHT22;10102;50.828;4.416;2023-11-19T08:54:37;12.70;99.90
19880;DHT22;10102;50.828;4.416;2023-11-19T08:57:04;13.10;99.90
19880;DHT22;10102;50.828;4.416;2023-11-19T08:59:30;13.00;99.90
19880;DHT22;10102;50.828;4.416;2023-11-19T09:01:56;13.10;99.90
19880;DHT22;10102;50.828;4.416;2023-11-19T09:04:21;13.20;99.90
19880;DHT22;10102;50.828;4.416;2023-11-19T09:06:51;13.30;99.90
19880;DHT22;10102;50.828;4.416;2023-11-19T09:09:16;13.20;99.90
19880;DHT22;10102;50.828;4.416;2023-11-19T09:11:43;13.20;99.90
19880;DHT22;10102;50.828;4.416;2023-11-19T09:14:09;12.90;99.90
19880;DHT22;10102;50.828;4.416;2023-11-19T09:16:35;13.20;99.90
19880;DHT22;10102;50.828;4.416;2023-11-19T09:19:00;13.20;99.90
19880;DHT22;10102;50.828;4.416;2023-11-19T09:21:28;13.10;99.90
19880;DHT22;10102;50.828;4.416;2023-11-19T09:23:57;13.20;99.90
19880;DHT22;10102;50.828;4.416;2023-11-19T09:26:22;13.00;99.90
19880;DHT22;10102;50.828;4.416;2023-11-19T09:28:48;13.20;99.90
19880;DHT22;10102;50.828;4.416;2023-11-19T09:31:17;13.20;99.90
19880;DHT22;10102;50.828;4.416;2023-11-19T09:33:43;13.50;99.90
19880;DHT22;10102;50.828;4.416;2023-11-19T09:36:09;13.50;99.90
19880;DHT22;10102;50.828;4.416;2023-11-19T09:38:37;13.30;99.90
19880;DHT22;10102;50.828;4.416;2023-11-19T09:41:05;13.70;99.90
19880;DHT22;10102;50.828;4.416;2023-11-19T09:43:35;14.20;99.90
19880;DHT22;10102;50.828;4.416;2023-11-19T09:46:08;14.60;99.90
19880;DHT22;10102;50.828;4.416;2023-11-19T09:48:37;14.90;99.90
19880;DHT22;10102;50.828;4.416;2023-11-19T09:51:07;14.90;99.90
19880;DHT22;10102;50.828;4.416;2023-11-19T09:53:33;15.10;99.90
19880;DHT22;10102;50.828;4.416;2023-11-19T09:56:00;14.70;99.90
19880;DHT22;10102;50.828;4.416;2023-11-19T09:58:29;14.70;99.90
19880;DHT22;10102;50.828;4.416;2023-11-19T10:00:55;14.60;99.90
19880;DHT22;10102;50.828;4.416;2023-11-19T10:03:21;14.90;99.90
19880;DHT22;10102;50.828;4.416;2023-11-19T10:05:48;14.90;99.90
19880;DHT22;10102;50.828;4.416;2023-11-19T10:08:14;15.00;99.90
19880;DHT22;10102;50.828;4.416;2023-11-19T10:10:39;15.60;99.90
19880;DHT22;10102;50.828;4.416;2023-11-19T10:13:05;16.70;99.90
19880;DHT22;10102;50.828;4.416;2023-11-19T10:15:37;17.20;99.90
19880;DHT22;10102;50.828;4.416;2023-11-19T10:18:03;17.30;99.90
19880;DHT22;10102;50.828;4.416;2023-11-19T10:20:36;16.70;99.90
19880;DHT22;10102;50.828;4.416;2023-11-19T10:23:02;16.80;99.90
19880;DHT22;10102;50.828;4.416;2023-11-19T10:25:29;16.80;99.90
19880;DHT22;10102;50.828;4.416;2023-11-19T10:27:56;16.80;99.90
19880;DHT22;10102;50.828;4.416;2023-11-19T10:30:23;17.40;99.90
19880;DHT22;10102;50.828;4.416;2023-11-19T10:33:10;17.80;99.90
19880;DHT22;10102;50.828;4.416;2023-11-19T10:35:58;18.00;99.90
19880;DHT22;10102;50.828;4.416;2023-11-19T10:38:25;16.90;99.90
19880;DHT22;10102;50.828;4.416;2023-11-19T10:40:51;16.60;99.90
19880;DHT22;10102;50.828;4.416;2023-11-19T10:43:18;16.70;99.90
19880;DHT22;10102;50.828;4.416;2023-11-19T10:45:44;16.70;99.90
19880;DHT22;10102;50.828;4.416;2023-11-19T10:48:10;16.50;99.90
19880;DHT22;10102;50.828;4.416;2023-11-19T10:50:37;16.00;99.90
19880;DHT22;10102;50.828;4.416;2023-11-19T10:53:07;15.90;99.90
19880;DHT22;10102;50.828;4.416;2023-11-19T10:55:37;15.20;99.90
19880;DHT22;10102;50.828;4.416;2023-11-19T10:58:07;16.20;99.90
19880;DHT22;10102;50.828;4.416;2023-11-19T11:00:37;16.30;99.90
19880;DHT22;10102;50.828;4.416;2023-11-19T11:03:11;17.20;99.90
19880;DHT22;10102;50.828;4.416;2023-11-19T11:05:40;17.00;99.90
19880;DHT22;10102;50.828;4.416;2023-11-19T11:08:07;16.90;99.90
19880;DHT22;10102;50.828;4.416;2023-11-19T11:10:39;16.40;99.90
19880;DHT22;10102;50.828;4.416;2023-11-19T11:13:08;15.40;99.90
19880;DHT22;10102;50.828;4.416;2023-11-19T11:15:34;15.70;99.90
19880;DHT22;10102;50.828;4.416;2023-11-19T11:18:01;15.60;99.90
19880;DHT22;10102;50.828;4.416;2023-11-19T11:20:36;15.00;99.90
19880;DHT22;10102;50.828;4.416;2023-11-19T11:29:02;14.40;99.90
19880;DHT22;10102;50.828;4.416;2023-11-19T11:39:35;17.10;99.90
19880;DHT22;10102;50.828;4.416;2023-11-19T11:45:07;19.00;99.90
19880;DHT22;10102;50.828;4.416;2023-11-19T11:58:03;22.30;99.90
19880;DHT22;10102;50.828;4.416;2023-11-19T12:00:30;22.50;99.90
19880;DHT22;10102;50.828;4.416;2023-11-19T12:02:57;23.40;99.90
19880;DHT22;10102;50.828;4.416;2023-11-19T12:05:24;22.00;99.90
19880;DHT22;10102;50.828;4.416;2023-11-19T12:08:00;20.50;99.90
19880;DHT22;10102;50.828;4.416;2023-11-19T12:10:29;20.30;99.90
19880;DHT22;10102;50.828;4.416;2023-11-19T12:12:59;18.10;99.90
19880;DHT22;10102;50.828;4.416;2023-11-19T12:15:28;18.10;99.90
19880;DHT22;10102;50.828;4.416;2023-11-19T12:17:54;17.20;99.90
19880;DHT22;10102;50.828;4.416;2023-11-19T12:20:24;16.90;99.90
19880;DHT22;10102;50.828;4.416;2023-11-19T12:22:52;16.90;99.90
19880;DHT22;10102;50.828;4.416;2023-11-19T12:25:18;16.40;99.90
19880;DHT22;10102;50.828;4.416;2023-11-19T12:27:51;15.80;99.90
19880;DHT22;10102;50.828;4.416;2023-11-19T12:30:26;15.70;99.90
19880;DHT22;10102;50.828;4.416;2023-11-19T12:32:53;15.30;99.90
19880;DHT22;10102;50.828;4.416;2023-11-19T12:35:22;15.10;99.90
19880;DHT22;10102;50.828;4.416;2023-11-19T12:37:52;15.00;99.90
19880;DHT22;10102;50.828;4.416;2023-11-19T12:40:19;15.20;99.90
19880;DHT22;10102;50.828;4.416;2023-11-19T12:42:49;14.80;99.90
19880;DHT22;10102;50.828;4.416;2023-11-19T12:45:15;14.80;99.90
19880;DHT22;10102;50.828;4.416;2023-11-19T12:47:44;14.90;99.90
19880;DHT22;10102;50.828;4.416;2023-11-19T12:50:13;14.70;99.90
19880;DHT22;10102;50.828;4.416;2023-11-19T12:52:39;14.70;99.90
19880;DHT22;10102;50.828;4.416;2023-11-19T12:55:24;14.70;99.90
19880;DHT22;10102;50.828;4.416;2023-11-19T12:57:50;14.70;99.90
19880;DHT22;10102;50.828;4.416;2023-11-19T13:00:20;14.70;99.90
19880;DHT22;10102;50.828;4.416;2023-11-19T13:05:33;14.70;99.90
19880;DHT22;10102;50.828;4.416;2023-11-19T13:10:29;15.00;99.90
19880;DHT22;10102;50.828;4.416;2023-11-19T13:13:05;14.90;99.90
19880;DHT22;10102;50.828;4.416;2023-11-19T13:15:32;14.90;99.90
19880;DHT22;10102;50.828;4.416;2023-11-19T13:17:59;14.70;99.90
19880;DHT22;10102;50.828;4.416;2023-11-19T13:20:25;14.70;99.90
19880;DHT22;10102;50.828;4.416;2023-11-19T13:25:20;14.80;99.90
19880;DHT22;10102;50.828;4.416;2023-11-19T13:27:46;14.80;99.90
19880;DHT22;10102;50.828;4.416;2023-11-19T13:30:12;14.70;99.90
19880;DHT22;10102;50.828;4.416;2023-11-19T13:32:38;14.60;99.90
19880;DHT22;10102;50.828;4.416;2023-11-19T13:35:05;14.60;99.90
19880;DHT22;10102;50.828;4.416;2023-11-19T13:37:30;14.50;99.90
19880;DHT22;10102;50.828;4.416;2023-11-19T13:39:56;14.60;99.90
19880;DHT22;10102;50.828;4.416;2023-11-19T13:42:22;14.20;99.90
19880;DHT22;10102;50.828;4.416;2023-11-19T13:44:47;14.50;99.90
19880;DHT22;10102;50.828;4.416;2023-11-19T13:47:13;14.40;99.90
19880;DHT22;10102;50.828;4.416;2023-11-19T13:49:39;14.60;99.90
19880;DHT22;10102;50.828;4.416;2023-11-19T13:52:05;14.30;99.90
19880;DHT22;10102;50.828;4.416;2023-11-19T13:54:31;14.60;99.90
19880;DHT22;10102;50.828;4.416;2023-11-19T13:56:56;14.60;99.90
19880;DHT22;10102;50.828;4.416;2023-11-19T13:59:26;14.50;99.90
19880;DHT22;10102;50.828;4.416;2023-11-19T14:01:52;14.40;99.90
19880;DHT22;10102;50.828;4.416;2023-11-19T14:04:18;14.40;99.90
19880;DHT22;10102;50.828;4.416;2023-11-19T14:06:46;14.40;99.90
19880;DHT22;10102;50.828;4.416;2023-11-19T14:09:12;14.50;99.90
19880;DHT22;10102;50.828;4.416;2023-11-19T14:11:38;14.40;99.90
19880;DHT22;10102;50.828;4.416;2023-11-19T14:14:04;14.00;99.90
19880;DHT22;10102;50.828;4.416;2023-11-19T14:18:56;14.10;99.90
19880;DHT22;10102;50.828;4.416;2023-11-19T14:21:22;14.20;99.90
19880;DHT22;10102;50.828;4.416;2023-11-19T14:23:48;14.00;99.90
19880;DHT22;10102;50.828;4.416;2023-11-19T14:26:13;14.10;99.90
19880;DHT22;10102;50.828;4.416;2023-11-19T14:28:39;14.20;99.90
19880;DHT22;10102;50.828;4.416;2023-11-19T14:31:05;14.50;99.90
19880;DHT22;10102;50.828;4.416;2023-11-19T14:33:30;14.00;99.90
19880;DHT22;10102;50.828;4.416;2023-11-19T14:35:56;13.50;99.90
19880;DHT22;10102;50.828;4.416;2023-11-19T14:38:22;13.40;99.90
19880;DHT22;10102;50.828;4.416;2023-11-19T14:40:48;13.60;99.90
19880;DHT22;10102;50.828;4.416;2023-11-19T14:45:41;13.40;99.90
19880;DHT22;10102;50.828;4.416;2023-11-19T14:48:06;13.50;99.90
19880;DHT22;10102;50.828;4.416;2023-11-19T14:50:32;13.40;99.90
19880;DHT22;10102;50.828;4.416;2023-11-19T14:52:58;13.30;99.90
19880;DHT22;10102;50.828;4.416;2023-11-19T14:55:23;13.70;99.90
19880;DHT22;10102;50.828;4.416;2023-11-19T14:57:49;13.30;99.90
19880;DHT22;10102;50.828;4.416;2023-11-19T15:00:16;13.30;99.90
19880;DHT22;10102;50.828;4.416;2023-11-19T15:02:42;13.30;99.90
19880;DHT22;10102;50.828;4.416;2023-11-19T15:05:08;13.30;99.90
19880;DHT22;10102;50.828;4.416;2023-11-19T15:07:38;13.30;99.90
19880;DHT22;10102;50.828;4.416;2023-11-19T15:10:07;13.30;99.90
19880;DHT22;10102;50.828;4.416;2023-11-19T15:12:39;13.30;99.90
19880;DHT22;10102;50.828;4.416;2023-11-19T15:15:09;13.30;99.90
19880;DHT22;10102;50.828;4.416;2023-11-19T15:17:35;13.30;99.90
19880;DHT22;10102;50.828;4.416;2023-11-19T15:20:03;13.40;99.90
19880;DHT22;10102;50.828;4.416;2023-11-19T15:22:29;13.70;99.90
19880;DHT22;10102;50.828;4.416;2023-11-19T15:24:54;13.60;99.90
19880;DHT22;10102;50.828;4.416;2023-11-19T15:27:20;13.70;99.90
19880;DHT22;10102;50.828;4.416;2023-11-19T15:29:47;13.70;99.90
19880;DHT22;10102;50.828;4.416;2023-11-19T15:32:12;13.90;99.90
19880;DHT22;10102;50.828;4.416;2023-11-19T15:34:39;13.70;99.90
19880;DHT22;10102;50.828;4.416;2023-11-19T15:37:08;13.70;99.90
19880;DHT22;10102;50.828;4.416;2023-11-19T15:39:34;13.70;99.90
19880;DHT22;10102;50.828;4.416;2023-11-19T15:42:02;13.80;99.90
19880;DHT22;10102;50.828;4.416;2023-11-19T15:44:28;13.80;99.90
19880;DHT22;10102;50.828;4.416;2023-11-19T15:46:54;13.70;99.90
19880;DHT22;10102;50.828;4.416;2023-11-19T15:49:20;13.70;99.90
19880;DHT22;10102;50.828;4.416;2023-11-19T15:51:46;13.80;99.90
19880;DHT22;10102;50.828;4.416;2023-11-19T15:54:11;13.80;99.90
19880;DHT22;10102;50.828;4.416;2023-11-19T15:59:03;14.30;99.90
19880;DHT22;10102;50.828;4.416;2023-11-19T16:01:33;13.60;99.90
19880;DHT22;10102;50.828;4.416;2023-11-19T16:03:59;13.60;99.90
19880;DHT22;10102;50.828;4.416;2023-11-19T16:06:24;13.20;99.90
19880;DHT22;10102;50.828;4.416;2023-11-19T16:11:16;13.30;99.90
19880;DHT22;10102;50.828;4.416;2023-11-19T16:13:43;13.40;99.90
19880;DHT22;10102;50.828;4.416;2023-11-19T16:16:08;13.40;99.90
19880;DHT22;10102;50.828;4.416;2023-11-19T16:21:01;13.40;99.90
19880;DHT22;10102;50.828;4.416;2023-11-19T16:25:53;13.20;99.90
19880;DHT22;10102;50.828;4.416;2023-11-19T16:28:19;13.10;99.90